Terminal Aerodrome Forecast
Issued by NWS

Home | Current Version | Previous Version | Text Only | Print | Product List | Glossary On
Versions: 1 2 3 4 5 6 7 8 9 10 11 12 13
000
FTUS45 KLKN 251733
TAFELY
TAF
KELY 251733Z 2518/2618 20009KT P6SM VCTS BKN060CB
     FM260300 17010KT P6SM VCSH SCT050 BKN070
     FM261200 17006KT P6SM BKN100=

USA.gov is the U.S. government's official web portal to all federal, state and local government web resources and services.